Time,TemperatureF,DewpointF,PressureIn,WindDirection,WindDirectionDegrees,WindSpeedMPH,WindSpeedGustMPH,Humidity,HourlyPrecipIn,Conditions,Clouds,dailyrainin,SoftwareType,DateUTC
2013-01-12 00:02:00,27.5,24.7,30.23,SW,235,3.0,9.0,89,0.00,,---,0.00,VWS V13.01,2013-01-12 08:02:00,
2013-01-12 00:32:00,27.3,24.2,30.23,SSW,200,3.0,13.0,88,0.00,,---,0.00,VWS V13.01,2013-01-12 08:32:00,
2013-01-12 01:02:00,26.7,22.8,30.23,WSW,237,4.0,11.0,85,0.00,,---,0.00,VWS V13.01,2013-01-12 09:02:00,
2013-01-12 01:32:00,26.7,22.5,30.24,WSW,243,3.0,18.0,84,0.00,,---,0.00,VWS V13.01,2013-01-12 09:32:00,
2013-01-12 02:02:00,26.3,22.7,30.24,SW,231,3.0,13.0,86,0.00,,---,0.00,VWS V13.01,2013-01-12 10:02:00,
2013-01-12 02:32:00,26.3,23.2,30.24,WSW,254,4.0,15.0,88,0.00,,---,0.00,VWS V13.01,2013-01-12 10:32:00,
2013-01-12 03:02:00,26.0,23.2,30.23,South,169,0.0,11.0,89,0.00,,---,0.00,VWS V13.01,2013-01-12 11:02:00,
2013-01-12 03:32:00,25.4,22.9,30.27,ENE,61,3.0,6.0,90,0.00,,---,0.00,VWS V13.01,2013-01-12 11:32:00,
2013-01-12 04:02:00,24.4,21.9,30.27,ENE,61,0.0,5.0,90,0.00,,---,0.00,VWS V13.01,2013-01-12 12:02:00,
2013-01-12 04:32:00,21.6,19.1,30.31,ENE,61,0.0,0.0,90,0.00,,---,0.00,VWS V13.01,2013-01-12 12:32:00,
2013-01-12 05:02:00,19.1,16.7,30.32,ENE,61,0.0,0.0,90,0.00,,---,0.00,VWS V13.01,2013-01-12 13:02:00,
2013-01-12 05:32:00,18.0,15.6,30.34,ENE,61,0.0,1.0,90,0.00,,---,0.00,VWS V13.01,2013-01-12 13:32:00,
2013-01-12 06:02:00,17.5,15.1,30.35,ENE,61,0.0,0.0,90,0.00,,---,0.00,VWS V13.01,2013-01-12 14:02:00,
2013-01-12 06:32:00,18.0,15.8,30.37,ENE,61,0.0,3.0,91,0.00,,---,0.00,VWS V13.01,2013-01-12 14:32:00,
2013-01-12 07:02:00,21.0,16.9,30.37,ESE,102,0.0,6.0,84,0.00,,---,0.00,VWS V13.01,2013-01-12 15:02:00,
2013-01-12 07:32:00,21.1,16.8,30.38,SE,129,0.0,5.0,83,0.00,,---,0.00,VWS V13.01,2013-01-12 15:32:00,
2013-01-12 08:02:00,26.6,19.4,30.36,SE,128,0.0,5.0,74,0.00,,---,0.00,VWS V13.01,2013-01-12 16:02:00,
2013-01-12 08:32:00,29.7,19.0,30.35,East,94,0.0,7.0,64,0.00,,---,0.00,VWS V13.01,2013-01-12 16:32:00,
2013-01-12 09:02:00,31.5,17.6,30.34,South,189,7.0,13.0,56,0.00,,---,0.00,VWS V13.01,2013-01-12 17:02:00,
2013-01-12 09:32:00,32.5,15.5,30.35,East,98,9.0,13.0,49,0.00,,---,0.00,VWS V13.01,2013-01-12 17:32:00,
2013-01-12 10:02:00,33.1,14.6,30.36,SSE,168,1.0,11.0,46,0.00,,---,0.00,VWS V13.01,2013-01-12 18:02:00,
2013-01-12 10:32:00,33.1,13.6,30.35,East,89,0.0,11.0,44,0.00,,---,0.00,VWS V13.01,2013-01-12 18:32:00,
2013-01-12 11:02:00,34.3,13.6,30.33,SW,217,8.0,13.0,42,0.01,,---,0.01,VWS V13.01,2013-01-12 19:02:00,
2013-01-12 11:32:00,34.1,13.4,30.32,South,191,7.0,14.0,42,0.01,,---,0.01,VWS V13.01,2013-01-12 19:32:00,
2013-01-12 12:02:00,35.5,12.4,30.29,ENE,76,0.0,10.0,38,0.02,,---,0.02,VWS V13.01,2013-01-12 20:02:00,
2013-01-12 12:32:00,34.9,12.5,30.30,East,100,2.0,11.0,39,0.02,,---,0.03,VWS V13.01,2013-01-12 20:32:00,
2013-01-12 13:02:00,35.0,14.2,30.29,East,99,6.0,12.0,42,0.02,,---,0.03,VWS V13.01,2013-01-12 21:02:00,
2013-01-12 13:32:00,35.0,13.7,30.30,ENE,69,4.0,11.0,41,0.02,,---,0.04,VWS V13.01,2013-01-12 21:32:00,
2013-01-12 14:02:00,35.9,13.4,30.29,South,187,0.0,10.0,39,0.02,,---,0.05,VWS V13.01,2013-01-12 22:02:00,
2013-01-12 14:32:00,36.2,13.6,30.29,SE,133,0.0,9.0,39,0.02,,---,0.05,VWS V13.01,2013-01-12 22:32:00,
2013-01-12 15:02:00,37.0,16.1,30.28,WSW,245,7.0,10.0,42,0.01,,---,0.05,VWS V13.01,2013-01-12 23:02:00,
2013-01-12 15:32:00,36.0,15.1,30.29,SSW,203,3.0,8.0,42,0.00,,---,0.05,VWS V13.01,2013-01-12 23:32:00,
2013-01-12 16:02:00,34.9,15.2,30.30,NNW,340,0.0,9.0,44,0.01,,---,0.06,VWS V13.01,2013-01-13 00:02:00,
2013-01-12 16:32:00,33.4,14.9,30.33,West,264,1.0,7.0,46,0.01,,---,0.06,VWS V13.01,2013-01-13 00:32:00,
2013-01-12 17:02:00,29.7,17.1,30.36,West,264,0.0,2.0,59,0.01,,---,0.06,VWS V13.01,2013-01-13 01:02:00,
2013-01-12 17:32:00,27.9,19.7,30.38,West,278,0.0,3.0,71,0.00,,---,0.06,VWS V13.01,2013-01-13 01:32:00,
2013-01-12 18:02:00,26.6,20.7,30.39,West,278,0.0,3.0,78,0.00,,---,0.06,VWS V13.01,2013-01-13 02:02:00,
2013-01-12 18:32:00,24.7,19.7,30.39,West,278,0.0,0.0,81,0.00,,---,0.06,VWS V13.01,2013-01-13 02:32:00,
2013-01-12 19:02:00,23.0,18.6,30.40,West,278,0.0,0.0,83,0.00,,---,0.06,VWS V13.01,2013-01-13 03:02:00,
2013-01-12 19:32:00,21.6,17.8,30.38,West,278,0.0,0.0,85,0.00,,---,0.06,VWS V13.01,2013-01-13 03:32:00,
2013-01-12 20:02:00,21.4,18.1,30.38,West,278,0.0,0.0,87,0.00,,---,0.06,VWS V13.01,2013-01-13 04:02:00,
2013-01-12 20:32:00,20.2,17.2,30.37,West,278,0.0,0.0,88,0.00,,---,0.06,VWS V13.01,2013-01-13 04:32:00,
2013-01-12 21:02:00,20.8,18.1,30.37,West,278,0.0,2.0,89,0.00,,---,0.06,VWS V13.01,2013-01-13 05:02:00,
2013-01-12 21:32:00,19.4,16.4,30.37,West,278,0.0,0.0,88,0.00,,---,0.06,VWS V13.01,2013-01-13 05:32:00,
2013-01-12 22:02:00,20.2,17.5,30.37,West,278,0.0,3.0,89,0.00,,---,0.06,VWS V13.01,2013-01-13 06:02:00,
2013-01-12 22:32:00,19.7,16.7,30.35,West,278,0.0,0.0,88,0.00,,---,0.06,VWS V13.01,2013-01-13 06:32:00,
2013-01-12 23:02:00,19.2,16.2,30.36,West,278,0.0,0.0,88,0.00,,---,0.06,VWS V13.01,2013-01-13 07:02:00,
2013-01-12 23:32:00,23.2,19.4,30.32,West,278,3.0,3.0,85,0.00,,---,0.06,VWS V13.01,2013-01-13 07:32:00,